• Join FlightAware (Why Join?)
  • Login
  • US Flag 
07:52AM EST


 

Airport Tracker/Info


-or-


 

Live Flight TrackerFlight Track Log ✈ FLG3432 ✈ 19-Aug-2013 ✈ KDTW - KIND

Flight Track Log - Related Links

Times and Time Zones

All times are in EDT time to prevent confusion due to time zone crossing. See the FLG3432 flight status page for this flight to view local times or setup timezone preferences in your user account.

Time Position Orientation Groundspeed Altitude Reporting Facility
EDT Latitude Longitude Course Direction KTS MPH feet Rate Location/Type
12:51PM 42.1994 -83.3608 213° Southwest 153 176 1,400  Level Cleveland Center
12:52PM 42.1378 -83.4142 213° Southwest 224 258 3,900 1,740 Climbing Cleveland Center
12:53PM 42.0911 -83.4458 207° Southwest 261 300 5,500 2,280 Climbing Cleveland Center
12:54PM 42.0208 -83.5042 212° Southwest 274 315 8,200 2,580 Climbing Cleveland Center
12:55PM 41.9525 -83.5653 214° Southwest 284 327 10,800 2,100 Climbing Cleveland Center
12:56PM 41.8714 -83.6311 211° Southwest 313 360 12,500 1,920 Climbing Cleveland Center
12:57PM 41.7883 -83.7025 213° Southwest 342 394 14,700 2,100 Climbing Cleveland Center
12:58PM 41.7008 -83.7761 212° Southwest 361 415 16,800 1,860 Climbing Cleveland Center
12:59PM 41.6092 -83.8464 210° Southwest 379 436 18,500 1,560 Climbing Cleveland Center
01:00PM 41.5172 -83.9222 212° Southwest 390 449 20,000 720 Climbing Cleveland Center
01:01PM 41.4189 -84.0003 211° Southwest 396 456 20,000  Level Cleveland Center
01:02PM 41.3356 -84.0678 211° Southwest 409 471 20,000  Level Cleveland Center
01:03PM 41.2453 -84.1597 217° Southwest 409 471 20,000  Level Cleveland Center
01:04PM 41.2003 -84.3256 250° West 398 458 20,000  Level Chicago Center
01:05PM 41.1650 -84.4639 251° West 396 456 20,000  Level Chicago Center
01:06PM 41.1286 -84.6050 251° West 400 460 20,000  Level Chicago Center
01:07PM 41.0931 -84.7464 252° West 404 465 20,000  Level Chicago Center
01:08PM 41.0564 -84.8883 251° West 405 466 20,000  Level Chicago Center
01:09PM 41.0189 -85.0314 251° West 408 470 20,000  Level Chicago Center
01:10PM 40.9525 -85.1453 232° Southwest 417 480 20,000  Level Chicago Center
01:11PM 40.8197 -85.1944 196° South 415 478 20,000  Level Chicago Center
01:12PM 40.7089 -85.2339 195° South 412 474 20,000  Level Chicago Center
01:13PM 40.5978 -85.2747 196° South 410 472 20,000 -480 Level Chicago Center
01:14PM 40.5050 -85.3572 214° Southwest 406 467 19,100 -1,620 Descending Chicago Center
01:15PM 40.4156 -85.4364 214° Southwest 394 453 16,700 -2,400 Descending Chicago Center
01:17PM 40.3281 -85.5128 214° Southwest 381 438 14,200 -2,520 Descending Indianapolis Center
01:18PM 40.2297 -85.6006 214° Southwest 358 412 11,500 -1,560 Descending Indianapolis Center
01:19PM 40.1642 -85.6744 221° Southwest 313 360 11,000 -900 Descending Indianapolis Center
01:20PM 40.1103 -85.7500 227° Southwest 286 329 9,700 -1,500 Descending Indianapolis Center
01:21PM 40.0581 -85.8253 228° Southwest 283 326 8,000 -1,740 Descending Indianapolis Center
01:22PM 40.0058 -85.8989 227° Southwest 280 322 6,200 -1,500 Descending Indianapolis Center
01:23PM 39.9542 -85.9703 227° Southwest 276 318 5,000 -720 Descending Indianapolis Center
01:24PM 39.8931 -86.0553 227° Southwest 271 312 4,800 -960 Descending Indianapolis Center
01:25PM 39.8422 -86.1233 226° Southwest 267 307 3,100 -900 Descending Indianapolis Center
01:26PM 39.7944 -86.1847 225° Southwest 255 293 3,000 -540 Descending Indianapolis Center
01:27PM 39.7619 -86.2253 224° Southwest 197 227 2,100 -900 Descending Indianapolis Center
01:28PM 39.7319 -86.2631 224° Southwest 164 189 1,200 -600 Descending Indianapolis Center
01:29PM 39.7044 -86.2986 225° Southwest 157 181 900 -300 Descending Indianapolis Center